Time;durP1;ratioP1;P1;durP2;ratioP2;P2;SDS_P1;SDS_P2;PMS_P1;PMS_P2;Temp;Humidity;BMP_temperature;BMP_pressure;BME280_temperature;BME280_humidity;BME280_pressure;Samples;Min_cycle;Max_cycle;Signal;HPM_P1;HPM_P2
2021/03/09 00:02:29;;;;;;;9.38;4.80;;;;;;;-1.52;80.62;99903.95;1742182;81;21346;-79
2021/03/09 00:05:35;;;;;;;7.55;4.22;;;;;;;-1.59;80.50;99895.49;1742992;82;21283;-75
2021/03/09 00:08:43;;;;;;;11.55;4.87;;;;;;;-1.63;80.59;99898.02;1741491;82;21295;-76
2021/03/09 00:11:49;;;;;;;8.48;4.75;;;;;;;-1.69;80.65;99898.45;1741447;82;21311;-78
2021/03/09 00:14:54;;;;;;;7.30;4.30;;;;;;;-1.75;80.68;99893.50;1742858;82;21777;-79
2021/03/09 00:18:01;;;;;;;5.33;3.77;;;;;;;-1.81;80.87;99898.34;1741797;82;21207;-76
2021/03/09 00:21:07;;;;;;;8.75;4.33;;;;;;;-1.81;80.92;99902.36;1741927;82;21268;-79
2021/03/09 00:24:13;;;;;;;7.25;4.20;;;;;;;-1.84;80.86;99898.54;1742882;82;21280;-76
2021/03/09 00:27:18;;;;;;;7.78;3.67;;;;;;;-1.85;80.91;99906.70;1742942;82;21299;-76
2021/03/09 00:30:23;;;;;;;12.13;4.17;;;;;;;-1.89;80.99;99901.17;1742897;82;21221;-79
2021/03/09 00:33:30;;;;;;;7.85;4.40;;;;;;;-1.92;81.19;99902.27;1741403;81;21196;-79
2021/03/09 00:36:35;;;;;;;7.85;4.87;;;;;;;-1.96;81.28;99898.08;1742974;82;21259;-79
2021/03/09 00:39:34;;;;;;;8.48;4.70;;;;;;;-1.96;81.35;99891.86;1743057;82;21279;-77
2021/03/09 00:42:39;;;;;;;8.55;4.55;;;;;;;-1.95;81.26;99889.55;1742953;82;21311;-79
2021/03/09 00:45:46;;;;;;;6.92;4.08;;;;;;;-1.94;81.15;99892.59;1743051;82;21730;-78
2021/03/09 00:48:52;;;;;;;6.55;3.92;;;;;;;-1.91;80.93;99893.25;1743037;82;21323;-77
2021/03/09 00:51:58;;;;;;;9.55;4.53;;;;;;;-1.93;80.86;99897.88;1742907;81;21322;-79
2021/03/09 00:55:03;;;;;;;4.85;3.52;;;;;;;-1.98;80.90;99896.45;1742922;82;21164;-79
2021/03/09 00:58:09;;;;;;;7.17;3.70;;;;;;;-2.02;80.97;99892.27;1743023;81;21836;-76
2021/03/09 01:01:15;;;;;;;7.55;3.45;;;;;;;-2.03;80.93;99891.90;1743044;82;21805;-77
2021/03/09 01:04:21;;;;;;;6.92;3.30;;;;;;;-2.07;80.97;99900.17;1743005;82;21279;-78
2021/03/09 01:07:26;;;;;;;4.17;3.42;;;;;;;-2.08;81.19;99899.77;1742930;82;21310;-79
2021/03/09 01:10:31;;;;;;;4.85;3.62;;;;;;;-2.04;81.39;99899.09;1743019;82;21810;-76
2021/03/09 01:13:37;;;;;;;5.53;3.50;;;;;;;-2.01;81.53;99906.92;1742953;82;21228;-76
2021/03/09 01:16:41;;;;;;;5.42;3.87;;;;;;;-1.98;81.68;99904.01;1742977;82;21330;-76
2021/03/09 01:19:47;;;;;;;7.47;4.20;;;;;;;-1.97;81.69;99909.77;1743012;82;21149;-77
2021/03/09 01:22:52;;;;;;;8.40;4.10;;;;;;;-1.96;81.72;99906.12;1741548;82;21266;-79
2021/03/09 01:25:57;;;;;;;5.55;3.70;;;;;;;-1.97;81.61;99899.05;1743013;82;21192;-79
2021/03/09 01:29:04;;;;;;;7.22;4.35;;;;;;;-1.98;81.39;99903.16;1742992;82;21307;-78
2021/03/09 01:32:09;;;;;;;5.10;3.55;;;;;;;-2.04;81.39;99909.80;1742968;82;21649;-76
2021/03/09 01:35:16;;;;;;;2.92;2.30;;;;;;;-2.11;80.46;99911.20;1743022;82;21824;-76
2021/03/09 01:38:22;;;;;;;4.28;1.87;;;;;;;-2.23;78.06;99906.67;1742701;82;21318;-76
2021/03/09 01:41:26;;;;;;;5.22;1.70;;;;;;;-2.34;76.18;99918.13;1742844;82;21294;-79
2021/03/09 01:44:33;;;;;;;3.85;1.95;;;;;;;-2.46;76.04;99917.13;1743019;82;21738;-76
2021/03/09 01:47:39;;;;;;;5.50;2.10;;;;;;;-2.54;75.97;99922.61;1742944;82;21335;-77
2021/03/09 01:50:47;;;;;;;3.10;1.98;;;;;;;-2.63;76.00;99924.11;1742987;82;21279;-76
2021/03/09 01:53:52;;;;;;;3.37;1.70;;;;;;;-2.69;76.24;99924.50;1742924;82;21766;-77
2021/03/09 01:56:57;;;;;;;3.60;2.12;;;;;;;-2.75;76.06;99920.90;1742963;82;21318;-76
2021/03/09 02:00:03;;;;;;;3.35;1.92;;;;;;;-2.79;76.02;99934.10;1742943;82;21750;-79
2021/03/09 02:03:05;;;;;;;5.25;1.70;;;;;;;-2.87;75.96;99926.11;1742941;81;21208;-76
2021/03/09 02:06:12;;;;;;;4.53;1.82;;;;;;;-2.90;76.15;99926.30;1742931;82;21267;-76
2021/03/09 02:09:12;;;;;;;4.00;2.30;;;;;;;-2.94;76.09;99936.83;1742361;82;21883;-79
2021/03/09 02:12:39;;;;;;;3.65;1.67;;;;;;;-2.96;76.28;99938.75;1743019;81;21232;-79
2021/03/09 02:16:07;;;;;;;2.52;1.60;;;;;;;-2.99;76.37;99942.10;1742941;82;21716;-79
2021/03/09 02:19:21;;;;;;;2.87;1.80;;;;;;;-3.03;76.35;99949.46;1742036;82;21341;-79
2021/03/09 02:22:35;;;;;;;3.40;1.92;;;;;;;-3.06;76.34;99959.02;1742592;82;21303;-79
2021/03/09 02:26:09;;;;;;;2.98;2.00;;;;;;;-3.07;76.35;99967.15;1742906;82;21303;-79
2021/03/09 02:29:48;;;;;;;5.28;2.40;;;;;;;-3.09;76.17;99960.56;1741303;82;21733;-79
2021/03/09 02:33:27;;;;;;;9.75;3.40;;;;;;;-3.15;76.20;99956.47;1742902;82;21330;-79
2021/03/09 02:36:33;;;;;;;8.55;4.55;;;;;;;-3.18;76.62;99963.83;1742893;82;21271;-76
2021/03/09 02:39:37;;;;;;;3.67;2.70;;;;;;;-3.18;76.88;99962.49;1742325;82;21228;-77
2021/03/09 02:42:47;;;;;;;4.92;2.77;;;;;;;-3.18;76.95;99966.50;1742990;82;21758;-75
2021/03/09 02:45:54;;;;;;;6.05;2.98;;;;;;;-3.20;77.06;99977.31;1743071;82;21164;-78
2021/03/09 02:48:59;;;;;;;6.15;3.08;;;;;;;-3.20;77.01;99975.09;1743080;82;21275;-79
2021/03/09 02:52:04;;;;;;;5.28;2.65;;;;;;;-3.23;77.01;99971.29;1743036;82;21359;-79
2021/03/09 02:55:10;;;;;;;6.28;2.85;;;;;;;-3.26;76.93;99987.52;1742932;82;21346;-78
2021/03/09 02:58:16;;;;;;;4.03;2.20;;;;;;;-3.28;76.96;99984.09;1728525;82;21255;-79
2021/03/09 03:01:22;;;;;;;4.75;2.22;;;;;;;-3.31;76.84;99998.99;1743011;82;21205;-79
2021/03/09 03:04:28;;;;;;;4.55;2.75;;;;;;;-3.38;76.75;100002.06;1743010;82;21284;-77
2021/03/09 03:07:35;;;;;;;5.83;2.67;;;;;;;-3.37;76.68;99998.91;1743028;82;21315;-75
2021/03/09 03:10:40;;;;;;;4.05;2.62;;;;;;;-3.37;76.77;100005.59;1742198;82;21844;-78
2021/03/09 03:13:48;;;;;;;3.90;2.40;;;;;;;-3.39;76.87;100004.36;1743085;82;21208;-79
2021/03/09 03:16:54;;;;;;;3.42;2.10;;;;;;;-3.39;76.91;100009.70;1742994;81;21307;-76
2021/03/09 03:19:59;;;;;;;3.60;1.87;;;;;;;-3.43;77.00;100018.88;1742125;82;21363;-77
2021/03/09 03:23:05;;;;;;;4.42;2.50;;;;;;;-3.46;77.30;100020.87;1741976;82;21850;-76
2021/03/09 03:26:11;;;;;;;4.87;2.40;;;;;;;-3.50;77.43;100025.53;1732121;83;21315;-78
2021/03/09 03:29:17;;;;;;;2.30;1.92;;;;;;;-3.53;77.70;100025.71;1732227;83;21331;-76
2021/03/09 03:32:23;;;;;;;3.90;2.58;;;;;;;-3.58;77.88;100030.97;1732255;83;21228;-76
2021/03/09 03:35:29;;;;;;;4.17;2.42;;;;;;;-3.61;78.16;100025.34;1732356;83;21865;-79
2021/03/09 03:38:33;;;;;;;3.50;2.10;;;;;;;-3.61;78.21;100040.05;1732254;81;21311;-79
2021/03/09 03:41:39;;;;;;;6.00;2.98;;;;;;;-3.64;78.29;100044.23;1732082;83;21180;-76
2021/03/09 03:44:46;;;;;;;5.35;2.62;;;;;;;-3.69;78.44;100047.66;1732237;83;21722;-76
2021/03/09 03:47:51;;;;;;;6.95;3.05;;;;;;;-3.72;78.54;100041.16;1732374;81;21299;-76
2021/03/09 03:50:57;;;;;;;8.23;2.30;;;;;;;-3.76;78.58;100051.20;1732286;83;21150;-76
2021/03/09 03:54:19;;;;;;;3.67;2.33;;;;;;;-3.78;78.67;100049.55;1732306;83;21280;-79
2021/03/09 03:57:37;;;;;;;6.83;3.22;;;;;;;-3.81;78.71;100048.39;1732255;83;21188;-76
2021/03/09 04:00:43;;;;;;;3.67;2.37;;;;;;;-3.82;78.80;100053.35;1731699;83;21316;-79
2021/03/09 04:03:49;;;;;;;4.62;2.85;;;;;;;-3.84;78.83;100061.95;1732131;83;21932;-76
2021/03/09 04:07:00;;;;;;;5.85;2.35;;;;;;;-3.82;78.81;100056.88;1732253;83;21308;-79
2021/03/09 04:10:04;;;;;;;4.37;2.52;;;;;;;-3.80;78.70;100065.69;1732411;83;21284;-79
2021/03/09 04:13:10;;;;;;;2.92;2.12;;;;;;;-3.83;78.64;100066.34;1732231;83;21312;-76
2021/03/09 04:16:16;;;;;;;3.20;2.37;;;;;;;-3.87;78.79;100075.86;1732191;83;21870;-80
2021/03/09 04:19:21;;;;;;;4.25;2.70;;;;;;;-3.81;78.82;100080.02;1732210;83;21169;-76
2021/03/09 04:22:26;;;;;;;5.75;2.20;;;;;;;-3.73;78.80;100083.06;1703020;84;21889;-76
2021/03/09 04:25:32;;;;;;;3.47;2.62;;;;;;;-3.66;78.82;100088.92;1731703;82;21200;-80
2021/03/09 04:28:37;;;;;;;2.77;2.47;;;;;;;-3.63;78.79;100091.39;1732243;81;21316;-77
2021/03/09 04:31:43;;;;;;;3.42;2.42;;;;;;;-3.55;78.80;100088.27;1732067;83;21356;-76
2021/03/09 04:34:48;;;;;;;7.80;2.95;;;;;;;-3.46;78.84;100093.92;1711125;83;21665;-80
2021/03/09 04:37:54;;;;;;;5.08;2.98;;;;;;;-3.34;78.59;100098.98;1732188;83;21366;-76
2021/03/09 04:40:59;;;;;;;5.15;2.90;;;;;;;-3.26;78.29;100105.22;1732160;83;21841;-77
2021/03/09 04:44:06;;;;;;;8.98;3.75;;;;;;;-3.26;78.04;100107.42;1731583;83;21782;-80
2021/03/09 04:47:11;;;;;;;4.90;2.58;;;;;;;-3.23;78.18;100105.91;1732219;83;21184;-76
2021/03/09 04:50:21;;;;;;;4.25;2.65;;;;;;;-3.18;78.09;100116.33;1732176;83;21276;-77
2021/03/09 04:53:26;;;;;;;8.43;3.15;;;;;;;-3.12;78.08;100108.77;1723550;83;21159;-76
2021/03/09 04:56:33;;;;;;;4.10;2.75;;;;;;;-3.08;77.82;100118.81;1694922;84;21195;-76
2021/03/09 04:59:38;;;;;;;3.80;2.50;;;;;;;-3.06;77.60;100122.23;1705489;84;21286;-76
2021/03/09 05:02:45;;;;;;;3.90;2.98;;;;;;;-3.06;77.26;100117.38;1705466;84;21305;-80
2021/03/09 05:05:52;;;;;;;3.20;2.52;;;;;;;-3.03;76.99;100123.88;1703054;84;21897;-79
2021/03/09 05:08:57;;;;;;;5.97;2.80;;;;;;;-3.03;76.87;100130.09;1703134;84;21803;-76
2021/03/09 05:12:02;;;;;;;4.25;2.40;;;;;;;-3.02;76.93;100137.16;1702651;83;21303;-80
2021/03/09 05:15:08;;;;;;;11.55;3.62;;;;;;;-3.01;76.56;100143.37;1708180;81;21155;-80
2021/03/09 05:18:14;;;;;;;7.78;3.83;;;;;;;-3.00;76.66;100133.08;1729556;81;21267;-79
2021/03/09 05:21:20;;;;;;;6.25;2.90;;;;;;;-2.99;76.71;100134.78;1711759;81;21785;-80
2021/03/09 05:24:25;;;;;;;5.30;3.17;;;;;;;-2.93;77.04;100137.07;1712865;81;21327;-76
2021/03/09 05:27:31;;;;;;;5.12;3.20;;;;;;;-2.90;76.84;100141.77;1722884;82;21192;-76
2021/03/09 05:30:37;;;;;;;4.10;2.72;;;;;;;-2.85;76.90;100146.35;1736541;82;21144;-80
2021/03/09 05:33:43;;;;;;;3.70;2.95;;;;;;;-2.78;76.90;100140.12;1723668;82;21272;-76
2021/03/09 05:36:51;;;;;;;4.17;3.10;;;;;;;-2.74;76.98;100156.87;1714496;82;21453;-80
2021/03/09 05:39:56;;;;;;;6.47;2.75;;;;;;;-2.65;77.08;100158.97;1721727;82;21193;-76
2021/03/09 05:43:00;;;;;;;3.95;2.72;;;;;;;-2.56;75.54;100157.05;1724233;81;21299;-80
2021/03/09 05:46:06;;;;;;;4.47;2.65;;;;;;;-2.49;74.38;100173.13;1701103;84;21754;-79
2021/03/09 05:49:12;;;;;;;3.27;2.60;;;;;;;-2.36;73.03;100168.70;1693824;84;21860;-80
2021/03/09 05:52:19;;;;;;;3.67;2.60;;;;;;;-2.20;73.22;100175.30;1698562;82;21307;-76
2021/03/09 05:55:25;;;;;;;4.70;2.40;;;;;;;-2.07;72.47;100174.89;1680774;84;21817;-81
2021/03/09 05:58:30;;;;;;;5.87;3.22;;;;;;;-1.95;71.59;100169.19;1674027;84;21195;-81
2021/03/09 06:01:35;;;;;;;2.70;2.30;;;;;;;-1.89;71.67;100186.20;1676105;84;21394;-76
2021/03/09 06:04:42;;;;;;;6.92;2.83;;;;;;;-1.88;70.80;100189.30;1652720;85;21307;-81
2021/03/09 06:07:48;;;;;;;4.58;2.50;;;;;;;-1.91;70.04;100194.84;1654551;85;21362;-76
2021/03/09 06:10:53;;;;;;;6.75;2.30;;;;;;;-1.94;70.88;100205.76;1655309;85;21808;-76
2021/03/09 06:13:58;;;;;;;4.05;3.15;;;;;;;-2.01;69.93;100216.52;1636405;85;21358;-76
2021/03/09 06:17:05;;;;;;;4.08;2.60;;;;;;;-2.07;70.66;100216.44;1655688;85;21228;-81
2021/03/09 06:20:13;;;;;;;5.35;2.22;;;;;;;-2.15;71.09;100224.09;1656734;85;21237;-81
2021/03/09 06:23:19;;;;;;;5.15;2.75;;;;;;;-2.22;71.18;100209.83;1651089;83;21212;-81
2021/03/09 06:26:45;;;;;;;6.37;3.05;;;;;;;-2.22;70.90;100241.98;1657675;83;21267;-81
2021/03/09 06:29:52;;;;;;;5.15;3.60;;;;;;;-2.15;71.04;100243.34;1668757;84;21225;-80
2021/03/09 06:32:58;;;;;;;5.92;2.90;;;;;;;-1.97;71.82;100243.51;1669209;84;21374;-80
2021/03/09 06:36:04;;;;;;;3.70;2.52;;;;;;;-1.82;71.81;100250.55;1669131;84;21196;-80
2021/03/09 06:39:10;;;;;;;5.15;2.50;;;;;;;-1.74;70.46;100247.39;1668532;84;21330;-80
2021/03/09 06:42:15;;;;;;;4.40;2.85;;;;;;;-1.75;69.00;100252.83;1667463;84;22053;-80
2021/03/09 06:45:22;;;;;;;4.30;2.70;;;;;;;-1.74;68.84;100237.11;1705987;82;21591;-80
2021/03/09 06:48:31;;;;;;;7.25;2.72;;;;;;;-1.74;68.51;100248.73;1731073;81;21673;-81
2021/03/09 06:51:43;;;;;;;4.30;3.00;;;;;;;-1.72;69.17;100243.25;1708065;82;21338;-81
2021/03/09 06:54:52;;;;;;;5.90;3.12;;;;;;;-1.72;69.87;100263.37;1735005;81;21774;-81
2021/03/09 06:58:11;;;;;;;4.50;2.80;;;;;;;-1.70;69.55;100252.91;1732835;81;21305;-81
2021/03/09 07:01:23;;;;;;;6.10;3.60;;;;;;;-1.65;69.75;100262.85;1731276;81;21183;-81
2021/03/09 07:04:30;;;;;;;4.70;3.25;;;;;;;-1.59;68.35;100255.77;1728138;81;21278;-80
2021/03/09 07:07:48;;;;;;;6.17;3.25;;;;;;;-1.56;67.97;100260.91;1728656;81;21310;-81
2021/03/09 07:10:55;;;;;;;5.05;3.45;;;;;;;-1.55;68.21;100255.09;1728933;81;21246;-80
2021/03/09 07:14:00;;;;;;;4.60;3.17;;;;;;;-1.49;69.11;100254.68;1729601;81;21241;-80
2021/03/09 07:17:09;;;;;;;5.58;3.22;;;;;;;-1.43;68.72;100260.12;1730577;81;21330;-80
2021/03/09 07:20:17;;;;;;;4.65;2.92;;;;;;;-1.52;67.22;100263.41;1732485;81;21947;-80
2021/03/09 07:23:34;;;;;;;5.20;2.95;;;;;;;-1.57;68.29;100266.39;1704467;82;21309;-80
2021/03/09 07:26:38;;;;;;;7.50;2.95;;;;;;;-1.49;68.79;100280.17;1704927;82;21861;-82
2021/03/09 07:29:46;;;;;;;6.85;3.12;;;;;;;-1.37;68.61;100283.37;1722665;81;21179;-81
2021/03/09 07:32:54;;;;;;;4.58;3.20;;;;;;;-1.35;66.07;100281.46;1720558;81;21238;-81
2021/03/09 07:35:59;;;;;;;7.80;3.17;;;;;;;-1.29;67.61;100271.66;1719821;81;21829;-83
2021/03/09 07:39:04;;;;;;;5.28;2.95;;;;;;;-1.26;67.12;100285.85;1720452;81;21291;-84
2021/03/09 07:42:10;;;;;;;3.75;2.70;;;;;;;-1.34;66.18;100275.13;1719764;81;21239;-82
2021/03/09 07:45:21;;;;;;;4.28;3.00;;;;;;;-1.26;66.69;100277.80;1723040;81;21273;-82
2021/03/09 07:48:27;;;;;;;6.10;3.50;;;;;;;-1.25;65.89;100277.69;1725148;81;21299;-83
2021/03/09 07:51:32;;;;;;;5.08;3.10;;;;;;;-1.29;65.02;100309.71;1708536;81;21244;-83
2021/03/09 07:54:37;;;;;;;3.17;2.40;;;;;;;-1.29;65.07;100290.92;1724087;81;21300;-78
2021/03/09 07:57:41;;;;;;;4.90;3.10;;;;;;;-1.22;64.73;100305.67;1721972;81;21310;-81
2021/03/09 08:01:00;;;;;;;4.60;3.10;;;;;;;-1.27;63.97;100306.92;1719490;81;21320;-81
2021/03/09 08:04:16;;;;;;;4.70;2.70;;;;;;;-1.23;63.27;100309.78;1727482;81;21307;-82
2021/03/09 08:07:20;;;;;;;5.28;2.65;;;;;;;-1.07;62.10;100309.16;1720644;81;21207;-83
2021/03/09 08:10:39;;;;;;;7.50;2.85;;;;;;;-1.02;60.30;100328.50;1715371;81;21275;-84
2021/03/09 08:13:44;;;;;;;3.98;2.65;;;;;;;-1.04;59.83;100309.80;1699910;81;21191;-78
2021/03/09 08:16:50;;;;;;;4.00;2.80;;;;;;;-0.87;60.34;100320.76;1719923;81;21217;-76
2021/03/09 08:19:57;;;;;;;5.10;2.02;;;;;;;-0.67;60.21;100318.55;1717877;81;22073;-81
2021/03/09 08:23:16;;;;;;;3.77;2.15;;;;;;;-0.67;55.27;100338.20;1718070;81;21807;-81
2021/03/09 08:26:42;;;;;;;5.40;2.45;;;;;;;-0.73;53.96;100333.26;1720213;81;21867;-78
2021/03/09 08:29:49;;;;;;;3.05;2.05;;;;;;;-0.70;55.46;100334.89;1723163;81;21646;-78
2021/03/09 08:32:53;;;;;;;4.72;2.72;;;;;;;-0.61;55.47;100327.06;1714461;81;21830;-78
2021/03/09 08:35:59;;;;;;;3.75;1.87;;;;;;;-0.52;52.53;100348.39;1732602;81;22268;-78
2021/03/09 08:39:15;;;;;;;3.47;1.92;;;;;;;-0.47;51.54;100336.88;1731340;81;21212;-78
2021/03/09 08:42:22;;;;;;;2.30;1.57;;;;;;;-0.48;49.85;100349.91;1730727;82;21225;-78
2021/03/09 08:45:53;;;;;;;2.02;1.47;;;;;;;-0.60;49.39;100348.07;1732080;82;21213;-78
2021/03/09 08:49:01;;;;;;;4.80;1.87;;;;;;;-0.62;48.35;100345.47;1734213;81;21833;-79
2021/03/09 08:52:06;;;;;;;3.90;2.02;;;;;;;-0.52;51.05;100339.88;1733181;82;21948;-78
2021/03/09 08:55:13;;;;;;;4.28;2.10;;;;;;;-0.31;50.47;100345.58;1729588;82;21168;-78
2021/03/09 08:58:33;;;;;;;3.90;1.95;;;;;;;-0.11;50.12;100353.59;1734253;82;21231;-78
2021/03/09 09:01:40;;;;;;;4.30;1.77;;;;;;;-0.03;49.62;100358.45;1708778;82;21207;-79
2021/03/09 09:04:48;;;;;;;2.42;1.60;;;;;;;-0.13;48.99;100357.38;1744512;80;21327;-78
2021/03/09 09:07:54;;;;;;;3.58;2.05;;;;;;;-0.21;49.66;100367.31;1740181;80;21309;-78
2021/03/09 09:10:59;;;;;;;1.77;1.50;;;;;;;-0.20;49.90;100357.41;1742632;80;21299;-77
2021/03/09 09:14:28;;;;;;;5.08;2.95;;;;;;;-0.06;49.29;100343.38;1740630;80;21201;-77
2021/03/09 09:17:37;;;;;;;6.03;2.60;;;;;;;0.10;48.90;100366.03;1708712;81;21508;-79
2021/03/09 09:20:51;;;;;;;2.58;1.80;;;;;;;0.37;49.91;100377.13;1740932;80;21217;-78
2021/03/09 09:24:01;;;;;;;4.45;2.50;;;;;;;0.44;48.18;100387.85;1741942;81;21195;-79
2021/03/09 09:27:14;;;;;;;6.05;3.80;;;;;;;0.37;48.51;100386.55;1708227;82;21868;-78
2021/03/09 09:30:18;;;;;;;5.22;2.55;;;;;;;0.42;51.07;100397.84;1744146;80;21285;-79
2021/03/09 09:33:29;;;;;;;3.05;1.70;;;;;;;0.29;48.03;100403.75;1727586;81;21354;-78
2021/03/09 09:36:36;;;;;;;3.20;1.60;;;;;;;0.12;45.53;100397.70;1718234;82;21173;-78
2021/03/09 09:39:43;;;;;;;5.58;3.95;;;;;;;0.08;46.97;100394.85;1747777;81;21158;-79
2021/03/09 09:42:48;;;;;;;20.65;13.43;;;;;;;0.12;46.04;100395.51;1743586;81;22319;-78
2021/03/09 09:46:09;;;;;;;4.25;1.70;;;;;;;0.07;46.29;100401.20;1698745;83;21715;-78
2021/03/09 09:49:16;;;;;;;8.00;4.72;;;;;;;0.08;45.59;100400.72;1746058;81;21303;-78
2021/03/09 09:52:25;;;;;;;2.02;1.50;;;;;;;0.27;48.34;100389.52;1695157;82;21313;-77
2021/03/09 09:55:38;;;;;;;3.62;1.87;;;;;;;0.31;46.36;100391.03;1742153;81;21632;-78
2021/03/09 09:59:00;;;;;;;5.22;2.35;;;;;;;0.11;47.03;100401.86;1747745;81;21295;-78
2021/03/09 10:02:07;;;;;;;2.22;1.72;;;;;;;-0.03;49.18;100409.55;1740875;80;21330;-78
2021/03/09 10:05:16;;;;;;;3.47;1.65;;;;;;;-0.02;49.75;100397.81;1744590;81;21145;-79
2021/03/09 10:08:44;;;;;;;19.50;7.22;;;;;;;0.02;47.31;100407.39;1742384;81;21347;-79
2021/03/09 10:11:54;;;;;;;3.65;2.22;;;;;;;-0.03;47.48;100404.16;1743474;81;21284;-79
2021/03/09 10:14:59;;;;;;;61.70;32.73;;;;;;;-0.06;49.11;100411.09;1743175;81;21569;-78
2021/03/09 10:18:16;;;;;;;92.82;47.98;;;;;;;-0.08;48.97;100429.17;1741633;81;21229;-79
2021/03/09 10:21:24;;;;;;;103.10;55.08;;;;;;;-0.09;49.53;100411.32;1740452;81;21834;-79
2021/03/09 10:24:34;;;;;;;13.90;7.83;;;;;;;0.01;50.20;100413.75;1739417;81;22072;-79
2021/03/09 10:27:40;;;;;;;18.92;10.55;;;;;;;0.03;47.08;100417.17;1737990;81;21268;-79
2021/03/09 10:30:49;;;;;;;35.68;17.35;;;;;;;-0.07;47.50;100408.03;1739432;81;21232;-78
2021/03/09 10:34:10;;;;;;;44.13;23.67;;;;;;;-0.19;48.51;100405.69;1734693;81;21485;-78
2021/03/09 10:37:19;;;;;;;58.78;32.73;;;;;;;-0.12;48.84;100406.14;1740378;80;21311;-78
2021/03/09 10:40:27;;;;;;;6.10;3.12;;;;;;;0.10;47.79;100414.45;1742040;81;21252;-79
2021/03/09 10:43:52;;;;;;;65.83;31.95;;;;;;;0.15;47.93;100410.09;1744536;81;21216;-79
2021/03/09 10:46:59;;;;;;;10.03;5.45;;;;;;;0.11;49.44;100405.41;1744187;81;21157;-80
2021/03/09 10:50:04;;;;;;;71.28;34.38;;;;;;;0.04;48.21;100425.61;1738488;81;21186;-80
2021/03/09 10:53:12;;;;;;;34.33;18.62;;;;;;;0.00;49.84;100412.03;1737954;81;21172;-78
2021/03/09 10:56:18;;;;;;;39.13;20.25;;;;;;;0.01;50.00;100413.75;1739265;81;21138;-78
2021/03/09 10:59:24;;;;;;;32.17;16.85;;;;;;;0.07;49.30;100415.14;1741597;81;22162;-79
2021/03/09 11:02:30;;;;;;;35.88;18.62;;;;;;;0.12;49.58;100415.19;1737381;81;21824;-78
2021/03/09 11:05:36;;;;;;;17.82;9.65;;;;;;;0.22;50.17;100410.03;1744271;80;21212;-79
2021/03/09 11:08:46;;;;;;;4.97;2.92;;;;;;;0.24;50.88;100407.63;1741759;81;21416;-80
2021/03/09 11:11:53;;;;;;;7.87;1.70;;;;;;;0.16;52.69;100414.50;1741367;81;21355;-79
2021/03/09 11:14:58;;;;;;;14.03;7.37;;;;;;;0.06;53.97;100417.46;1741133;81;21406;-79
2021/03/09 11:18:04;;;;;;;24.00;14.55;;;;;;;-0.10;54.13;100415.81;1742550;81;21185;-80
2021/03/09 11:21:10;;;;;;;11.30;5.95;;;;;;;-0.14;54.39;100408.06;1738306;81;21229;-79
2021/03/09 11:24:16;;;;;;;11.38;6.25;;;;;;;-0.24;53.48;100424.45;1727891;81;21260;-78
2021/03/09 11:27:22;;;;;;;14.07;6.30;;;;;;;-0.29;51.34;100425.62;1713311;83;21956;-79
2021/03/09 11:30:31;;;;;;;31.70;15.15;;;;;;;-0.25;50.57;100416.87;1742758;80;21218;-79
2021/03/09 11:33:39;;;;;;;5.22;3.42;;;;;;;-0.22;48.57;100425.22;1731383;82;21302;-78
2021/03/09 11:36:50;;;;;;;2.92;2.20;;;;;;;-0.16;50.33;100424.80;1743218;81;21949;-79
2021/03/09 11:39:58;;;;;;;25.00;11.80;;;;;;;-0.03;49.77;100431.05;1689982;82;21172;-79
2021/03/09 11:43:11;;;;;;;22.87;9.80;;;;;;;0.08;57.18;100445.95;1719879;81;21294;-79
2021/03/09 11:46:20;;;;;;;3.62;2.47;;;;;;;-0.12;57.65;100451.86;1708153;81;21256;-79
2021/03/09 11:49:28;;;;;;;15.95;8.70;;;;;;;-0.48;58.70;100442.61;1701228;83;21409;-78
2021/03/09 11:52:35;;;;;;;13.35;7.45;;;;;;;-0.75;60.07;100456.08;1714864;82;21390;-79
2021/03/09 11:55:41;;;;;;;21.73;10.55;;;;;;;-0.92;62.09;100453.62;1744132;81;21364;-78
2021/03/09 11:58:49;;;;;;;15.15;8.58;;;;;;;-1.01;62.37;100458.24;1744989;80;21451;-79
2021/03/09 12:01:54;;;;;;;8.38;4.95;;;;;;;-0.98;62.28;100459.40;1729372;81;21366;-78
2021/03/09 12:05:01;;;;;;;16.25;9.08;;;;;;;-0.82;60.27;100469.02;1731754;81;21282;-80
2021/03/09 12:08:06;;;;;;;7.15;2.25;;;;;;;-0.70;57.62;100456.63;1741096;81;21330;-78
2021/03/09 12:11:14;;;;;;;21.65;10.40;;;;;;;-0.54;56.56;100468.56;1728553;81;21268;-79
2021/03/09 12:14:21;;;;;;;3.27;2.60;;;;;;;-0.35;57.40;100457.44;1714034;82;21830;-79
2021/03/09 12:17:29;;;;;;;13.10;7.58;;;;;;;-0.16;56.06;100461.95;1687339;82;21827;-78
2021/03/09 12:20:38;;;;;;;11.73;6.55;;;;;;;-0.12;56.26;100463.47;1745091;80;21743;-78
2021/03/09 12:23:51;;;;;;;18.82;8.88;;;;;;;-0.27;58.49;100472.58;1741352;80;21836;-78
2021/03/09 12:26:57;;;;;;;13.78;7.47;;;;;;;-0.49;58.95;100474.48;1732165;81;21168;-79
2021/03/09 12:30:03;;;;;;;7.30;3.85;;;;;;;-0.71;60.89;100481.75;1731669;81;21990;-78
2021/03/09 12:33:09;;;;;;;4.85;2.77;;;;;;;-0.83;62.67;100490.63;1741698;81;21557;-79
2021/03/09 12:36:16;;;;;;;17.45;8.00;;;;;;;-0.93;63.75;100499.75;1728201;81;21355;-79
2021/03/09 12:39:23;;;;;;;10.93;5.97;;;;;;;-0.99;63.88;100498.78;1744547;81;21297;-80
2021/03/09 12:42:31;;;;;;;4.00;2.87;;;;;;;-0.87;63.49;100493.98;1733287;81;21486;-79
2021/03/09 12:45:36;;;;;;;9.40;5.20;;;;;;;-0.77;61.69;100497.78;1736199;81;21280;-79
2021/03/09 12:48:42;;;;;;;9.45;5.67;;;;;;;-0.69;61.54;100503.16;1703469;83;21176;-78
2021/03/09 12:51:48;;;;;;;6.65;3.70;;;;;;;-0.58;61.59;100493.41;1734865;81;21901;-79
2021/03/09 12:54:55;;;;;;;4.85;2.98;;;;;;;-0.45;62.18;100508.74;1704206;83;21323;-78
2021/03/09 12:58:03;;;;;;;5.40;3.27;;;;;;;-0.39;59.99;100517.25;1712392;82;21362;-79
2021/03/09 13:01:08;;;;;;;7.20;3.25;;;;;;;-0.39;58.33;100519.08;1740388;81;21288;-78
2021/03/09 13:04:14;;;;;;;5.62;2.95;;;;;;;-0.51;57.75;100523.45;1726914;81;21285;-78
2021/03/09 13:07:24;;;;;;;7.87;3.85;;;;;;;-0.60;58.19;100513.31;1740173;81;21267;-77
2021/03/09 13:10:28;;;;;;;5.17;2.80;;;;;;;-0.64;56.22;100505.92;1741941;81;21168;-77
2021/03/09 13:13:36;;;;;;;12.47;6.30;;;;;;;-0.63;53.35;100507.64;1742804;81;21212;-78
2021/03/09 13:16:41;;;;;;;11.97;7.42;;;;;;;-0.57;51.85;100510.40;1738834;81;21181;-78
2021/03/09 13:19:48;;;;;;;8.38;4.60;;;;;;;-0.47;52.20;100507.52;1738434;81;21155;-78
2021/03/09 13:22:54;;;;;;;6.87;3.98;;;;;;;-0.37;54.49;100511.31;1726268;81;21152;-78
2021/03/09 13:26:00;;;;;;;13.53;4.42;;;;;;;-0.31;54.81;100518.96;1742078;80;21160;-78
2021/03/09 13:29:05;;;;;;;6.67;2.87;;;;;;;-0.29;55.48;100518.84;1729727;81;21177;-80
2021/03/09 13:32:10;;;;;;;5.15;3.33;;;;;;;-0.43;55.95;100525.62;1737978;81;21998;-78
2021/03/09 13:35:16;;;;;;;5.25;3.00;;;;;;;-0.70;57.96;100526.48;1745990;81;21250;-78
2021/03/09 13:38:24;;;;;;;3.95;2.75;;;;;;;-0.96;59.60;100531.30;1728868;81;21335;-78
2021/03/09 13:41:30;;;;;;;9.90;4.10;;;;;;;-1.15;59.75;100541.00;1740522;81;21785;-79
2021/03/09 13:44:38;;;;;;;6.90;3.60;;;;;;;-1.26;60.69;100534.11;1730017;81;21311;-79
2021/03/09 13:47:42;;;;;;;11.20;6.40;;;;;;;-1.30;59.80;100539.66;1746833;81;21296;-80
2021/03/09 13:50:49;;;;;;;4.95;3.35;;;;;;;-1.34;58.18;100542.63;1743869;81;21146;-81
2021/03/09 13:53:55;;;;;;;5.85;3.35;;;;;;;-1.32;55.69;100552.77;1735983;81;21876;-77
2021/03/09 13:57:01;;;;;;;4.53;3.15;;;;;;;-1.36;56.24;100540.05;1738729;81;21219;-78
2021/03/09 14:00:05;;;;;;;5.75;3.58;;;;;;;-1.34;55.76;100539.45;1727171;81;21267;-78
2021/03/09 14:03:12;;;;;;;7.20;3.35;;;;;;;-1.32;54.45;100538.91;1727852;81;21721;-77
2021/03/09 14:06:18;;;;;;;5.08;2.92;;;;;;;-1.26;55.03;100544.84;1712007;81;21235;-78
2021/03/09 14:09:25;;;;;;;8.10;4.15;;;;;;;-1.24;53.33;100544.25;1701629;83;21331;-79
2021/03/09 14:12:43;;;;;;;6.45;4.12;;;;;;;-1.27;54.62;100537.72;1697109;83;21362;-79
2021/03/09 14:15:51;;;;;;;5.25;3.50;;;;;;;-1.31;54.37;100547.33;1691276;84;21708;-79
2021/03/09 14:19:12;;;;;;;9.50;5.37;;;;;;;-1.36;55.36;100550.78;1695132;84;21303;-79
2021/03/09 14:23:09;;;;;;;;;;;;;;;;;;;;;
2021/03/09 14:26:09;;;;;;;5.22;2.87;;;;;;;-1.66;59.30;100550.81;1615919;87;21906;-79
2021/03/09 14:33:36;;;;;;;12.98;6.10;;;;;;;-1.80;59.42;100559.69;1584439;88;21220;-79
2021/03/09 14:36:43;;;;;;;10.88;5.47;;;;;;;-1.85;59.89;100562.26;1582884;88;21327;-79
2021/03/09 14:39:48;;;;;;;11.90;5.83;;;;;;;-1.89;60.04;100558.89;1586043;88;21580;-79
2021/03/09 14:42:57;;;;;;;7.22;4.53;;;;;;;-1.87;60.01;100562.36;1607548;87;21871;-79